This is the latest recevied weather packets stored in our database for station/object EA5HPA-11. If no packets are shown the sender has not sent any weather packets the latest 10 day(s).
| Time | Temp. | Humidity | Pressure | Rain* | Wind** | Luminosity | Snow |
|---|---|---|---|---|---|---|---|
| 1787994708 | 26.11° C | 38% | 1020 hPa | 0 mm | - | - | - |
| 1787994407 | 25.56° C | 39% | 1019 hPa | 0 mm | - | - | - |
| 1787994106 | 25.56° C | 39% | 1019 hPa | 0 mm | - | - | - |
| 1787993806 | 25.56° C | 40% | 1019 hPa | 0 mm | - | - | - |
| 1787993505 | 25° C | 39% | 1019 hPa | 0 mm | - | - | - |
| 1787993204 | 25.56° C | 39% | 1019 hPa | 0 mm | - | - | - |
| 1787992903 | 25° C | 40% | 1019 hPa | 0 mm | - | - | - |
| 1787992602 | 25° C | 40% | 1019 hPa | 0 mm | - | - | - |
| 1787992301 | 23.89° C | 43% | 1019 hPa | 0 mm | - | - | - |
| 1787992001 | 23.89° C | 43% | 1019 hPa | 0 mm | - | - | - |
| 1787991700 | 23.89° C | 44% | 1019 hPa | 0 mm | - | - | - |
| 1787991399 | 23.89° C | 44% | 1019 hPa | 0 mm | - | - | - |
| 1787991098 | 24.44° C | 46% | 1019 hPa | 0 mm | - | - | - |
| 1787990797 | 24.44° C | 48% | 1019 hPa | 0 mm | - | - | - |
| 1787990497 | 24.44° C | 48% | 1019 hPa | 0 mm | - | - | - |
| 1787990196 | 23.33° C | 50% | 1019 hPa | 0 mm | - | - | - |
| 1787989895 | 23.33° C | 50% | 1019 hPa | 0 mm | - | - | - |
| 1787989594 | 18.89° C | 63% | 1019 hPa | 0 mm | - | - | - |
| 1787989293 | 18.89° C | 63% | 1019 hPa | 0 mm | - | - | - |
| 1787988992 | 18.89° C | 63% | 1019 hPa | 0 mm | - | - | - |
| 1787988692 | 22.22° C | 49% | 1019 hPa | 0 mm | - | - | - |
| 1787988391 | 22.22° C | 49% | 1019 hPa | 0 mm | - | - | - |
| 1787988090 | 22.22° C | 49% | 1019 hPa | 0 mm | - | - | - |
| 1787987789 | 21.67° C | 48% | 1019 hPa | 0 mm | - | - | - |
| 1787987488 | 21.67° C | 48% | 1019 hPa | 0 mm | - | - | - |
* Rain latest hour (hover to see other rain measurements)
** Current wind speed in m/s (hover to see current wind gust speed)